GLO7953 SBSV-SBRF
Flight info
| Callsign | GLO7953 |
|---|---|
| Flight time | 1h 1m |
| Altitude | 37000 |
| Route | ARURU DCT ILTAT UZ23 ANBEX |
| Aircraft | B738/M-SDE2E3FGHIRWXY/LB1 |
Departure
| Time | 2026-05-08 02:34 |
|---|---|
| Airport | Deputado Luiz Eduardo Magalhães International Airport (SBSV) |
Arrival
| Time | 2026-05-08 03:36 |
|---|---|
| Airport | Recife/Guararapes - Gilberto Freyre International Airport (SBRF) |
| Time | Latitude | Longitude | Altitude | Speed | Heading |
|---|---|---|---|---|---|
| 2026-05-08 01:59 | -12.91475 | -38.33286 | 43 ft | 0 kts | 352° |
| 2026-05-08 02:25 | -12.91484 | -38.33285 | 43 ft | 2 kts | 352° |
| 2026-05-08 02:25 | -12.91499 | -38.33283 | 42 ft | 2 kts | 352° |
| 2026-05-08 02:25 | -12.91514 | -38.33281 | 42 ft | 2 kts | 352° |
| 2026-05-08 02:26 | -12.91529 | -38.33282 | 42 ft | 2 kts | 30° |
| 2026-05-08 02:26 | -12.91540 | -38.33292 | 43 ft | 2 kts | 61° |
| 2026-05-08 02:26 | -12.91543 | -38.33301 | 43 ft | 1 kts | 81° |
| 2026-05-08 02:26 | -12.91544 | -38.33308 | 43 ft | 0 kts | 82° |
| 2026-05-08 02:29 | -12.91544 | -38.33307 | 43 ft | 0 kts | 82° |
| 2026-05-08 02:29 | -12.91538 | -38.33271 | 42 ft | 10 kts | 80° |
| 2026-05-08 02:29 | -12.91518 | -38.33172 | 38 ft | 15 kts | 65° |
| 2026-05-08 02:29 | -12.91422 | -38.33141 | 40 ft | 15 kts | 354° |
| 2026-05-08 02:30 | -12.91315 | -38.33161 | 43 ft | 13 kts | 348° |
| 2026-05-08 02:30 | -12.91224 | -38.33191 | 43 ft | 13 kts | 304° |
| 2026-05-08 02:30 | -12.91222 | -38.33289 | 44 ft | 14 kts | 269° |
| 2026-05-08 02:30 | -12.91191 | -38.33390 | 43 ft | 16 kts | 288° |
| 2026-05-08 02:31 | -12.91198 | -38.33510 | 41 ft | 17 kts | 256° |
| 2026-05-08 02:31 | -12.91178 | -38.33579 | 39 ft | 6 kts | 339° |
| 2026-05-08 02:31 | -12.91137 | -38.33581 | 39 ft | 5 kts | 32° |
| 2026-05-08 02:31 | -12.91123 | -38.33557 | 40 ft | 2 kts | 73° |
| 2026-05-08 02:32 | -12.91122 | -38.33553 | 40 ft | 0 kts | 77° |
| 2026-05-08 02:33 | -12.91122 | -38.33552 | 40 ft | 0 kts | 77° |
| 2026-05-08 02:33 | -12.91116 | -38.33522 | 40 ft | 11 kts | 78° |
| 2026-05-08 02:34 | -12.91070 | -38.33285 | 39 ft | 69 kts | 81° |
| 2026-05-08 02:34 | -12.90922 | -38.32564 | 36 ft | 135 kts | 79° |
| 2026-05-08 02:34 | -12.90702 | -38.31439 | 128 ft | 178 kts | 80° |
| 2026-05-08 02:34 | -12.90431 | -38.30172 | 695 ft | 188 kts | 77° |
| 2026-05-08 02:35 | -12.90071 | -38.28972 | 1740 ft | 172 kts | 73° |
| 2026-05-08 02:35 | -12.89643 | -38.27852 | 2232 ft | 175 kts | 69° |
| 2026-05-08 02:35 | -12.89018 | -38.26797 | 2819 ft | 172 kts | 51° |
| 2026-05-08 02:35 | -12.88016 | -38.26078 | 3135 ft | 193 kts | 25° |
| 2026-05-08 02:36 | -12.86626 | -38.25862 | 3611 ft | 206 kts | 360° |
| 2026-05-08 02:36 | -12.85231 | -38.26242 | 4157 ft | 214 kts | 340° |
| 2026-05-08 02:36 | -12.83814 | -38.26901 | 4471 ft | 233 kts | 338° |
| 2026-05-08 02:36 | -12.82301 | -38.27617 | 4879 ft | 246 kts | 341° |
| 2026-05-08 02:37 | -12.80586 | -38.28171 | 5078 ft | 269 kts | 350° |
| 2026-05-08 02:37 | -12.78697 | -38.28478 | 5684 ft | 274 kts | 358° |
| 2026-05-08 02:37 | -12.76787 | -38.28565 | 6156 ft | 284 kts | 2° |
| 2026-05-08 02:37 | -12.74739 | -38.28558 | 6349 ft | 298 kts | 2° |
| 2026-05-08 02:38 | -12.72721 | -38.28508 | 7423 ft | 286 kts | 10° |
| 2026-05-08 02:38 | -12.70813 | -38.28057 | 8264 ft | 281 kts | 22° |
| 2026-05-08 02:38 | -12.69100 | -38.27150 | 8966 ft | 280 kts | 37° |
| 2026-05-08 02:38 | -12.67541 | -38.25940 | 9744 ft | 281 kts | 41° |
| 2026-05-08 02:39 | -12.66013 | -38.24667 | 10425 ft | 287 kts | 41° |
| 2026-05-08 02:39 | -12.64429 | -38.23372 | 10837 ft | 302 kts | 39° |
| 2026-05-08 02:39 | -12.62710 | -38.22009 | 11209 ft | 319 kts | 39° |
| 2026-05-08 02:39 | -12.60890 | -38.20593 | 11610 ft | 334 kts | 38° |
| 2026-05-08 02:40 | -12.58997 | -38.19132 | 11978 ft | 348 kts | 38° |
| 2026-05-08 02:40 | -12.57033 | -38.17622 | 12550 ft | 357 kts | 38° |
| 2026-05-08 02:40 | -12.55041 | -38.16090 | 13251 ft | 361 kts | 38° |
| 2026-05-08 02:40 | -12.53023 | -38.14537 | 13916 ft | 366 kts | 38° |
| 2026-05-08 02:41 | -12.50995 | -38.12974 | 14553 ft | 371 kts | 37° |
| 2026-05-08 02:41 | -12.48906 | -38.11364 | 15229 ft | 375 kts | 37° |
| 2026-05-08 02:41 | -12.46811 | -38.09750 | 15882 ft | 380 kts | 37° |
| 2026-05-08 02:41 | -12.44686 | -38.08113 | 16502 ft | 385 kts | 37° |
| 2026-05-08 02:42 | -12.42561 | -38.06475 | 17102 ft | 389 kts | 36° |
| 2026-05-08 02:42 | -12.40361 | -38.04779 | 17680 ft | 394 kts | 36° |
| 2026-05-08 02:42 | -12.38182 | -38.03101 | 18250 ft | 399 kts | 36° |
| 2026-05-08 02:42 | -12.35945 | -38.01379 | 18847 ft | 403 kts | 36° |
| 2026-05-08 02:43 | -12.33689 | -37.99642 | 19436 ft | 407 kts | 36° |
| 2026-05-08 02:43 | -12.31443 | -37.97913 | 20017 ft | 410 kts | 36° |
| 2026-05-08 02:43 | -12.29145 | -37.96146 | 20580 ft | 414 kts | 36° |
| 2026-05-08 02:43 | -12.26832 | -37.94367 | 21184 ft | 416 kts | 36° |
| 2026-05-08 02:44 | -12.24516 | -37.92586 | 21754 ft | 419 kts | 36° |
| 2026-05-08 02:44 | -12.22172 | -37.90783 | 22322 ft | 421 kts | 36° |
| 2026-05-08 02:44 | -12.19836 | -37.88987 | 22831 ft | 425 kts | 36° |
| 2026-05-08 02:44 | -12.17450 | -37.87152 | 23289 ft | 429 kts | 36° |
| 2026-05-08 02:45 | -12.15073 | -37.85325 | 23780 ft | 432 kts | 36° |
| 2026-05-08 02:45 | -12.12641 | -37.83456 | 24188 ft | 437 kts | 36° |
| 2026-05-08 02:45 | -12.10205 | -37.81585 | 24638 ft | 441 kts | 36° |
| 2026-05-08 02:45 | -12.07734 | -37.79686 | 25062 ft | 445 kts | 36° |
| 2026-05-08 02:46 | -12.05262 | -37.77788 | 25503 ft | 449 kts | 36° |
| 2026-05-08 02:46 | -12.02735 | -37.75848 | 25894 ft | 453 kts | 35° |
| 2026-05-08 02:46 | -12.00209 | -37.73909 | 26332 ft | 455 kts | 35° |
| 2026-05-08 02:46 | -11.97665 | -37.71957 | 26690 ft | 459 kts | 35° |
| 2026-05-08 02:47 | -11.95090 | -37.69995 | 27075 ft | 462 kts | 34° |
| 2026-05-08 02:47 | -11.92459 | -37.68160 | 27420 ft | 465 kts | 30° |
| 2026-05-08 02:47 | -11.89684 | -37.66437 | 27783 ft | 467 kts | 27° |
| 2026-05-08 02:47 | -11.86837 | -37.64784 | 28113 ft | 471 kts | 26° |
| 2026-05-08 02:48 | -11.83967 | -37.63168 | 28459 ft | 473 kts | 26° |
| 2026-05-08 02:48 | -11.81054 | -37.61544 | 28812 ft | 476 kts | 25° |
| 2026-05-08 02:48 | -11.78151 | -37.59924 | 29154 ft | 480 kts | 25° |
| 2026-05-08 02:48 | -11.75206 | -37.58271 | 29646 ft | 478 kts | 26° |
| 2026-05-08 02:49 | -11.72325 | -37.56641 | 30224 ft | 475 kts | 25° |
| 2026-05-08 02:49 | -11.69432 | -37.54995 | 30729 ft | 474 kts | 25° |
| 2026-05-08 02:49 | -11.66552 | -37.53351 | 31177 ft | 474 kts | 26° |
| 2026-05-08 02:49 | -11.63676 | -37.51704 | 31627 ft | 473 kts | 25° |
| 2026-05-08 02:50 | -11.60795 | -37.50053 | 32023 ft | 473 kts | 25° |
| 2026-05-08 02:50 | -11.57910 | -37.48398 | 32474 ft | 472 kts | 25° |
| 2026-05-08 02:50 | -11.55076 | -37.46772 | 32915 ft | 471 kts | 25° |
| 2026-05-08 02:50 | -11.52197 | -37.45118 | 33372 ft | 470 kts | 25° |
| 2026-05-08 02:51 | -11.49359 | -37.43487 | 33844 ft | 468 kts | 25° |
| 2026-05-08 02:51 | -11.46538 | -37.41866 | 34327 ft | 466 kts | 25° |
| 2026-05-08 02:51 | -11.43737 | -37.40258 | 34781 ft | 464 kts | 25° |
| 2026-05-08 02:51 | -11.40921 | -37.38642 | 35151 ft | 464 kts | 25° |
| 2026-05-08 02:52 | -11.38091 | -37.37019 | 35578 ft | 462 kts | 25° |
| 2026-05-08 02:52 | -11.35282 | -37.35407 | 35983 ft | 461 kts | 25° |
| 2026-05-08 02:52 | -11.32516 | -37.33821 | 36365 ft | 460 kts | 25° |
| 2026-05-08 02:52 | -11.29733 | -37.32225 | 36675 ft | 459 kts | 25° |
| 2026-05-08 02:53 | -11.26949 | -37.30629 | 36989 ft | 458 kts | 25° |
| 2026-05-08 02:53 | -11.24165 | -37.29035 | 36992 ft | 460 kts | 25° |
| 2026-05-08 02:53 | -11.18574 | -37.25833 | 37000 ft | 457 kts | 25° |
| 2026-05-08 02:54 | -11.13054 | -37.22673 | 36996 ft | 457 kts | 25° |
| 2026-05-08 02:54 | -11.07518 | -37.19504 | 36998 ft | 455 kts | 25° |
| 2026-05-08 02:55 | -10.99265 | -37.14726 | 36998 ft | 455 kts | 27° |
| 2026-05-08 02:56 | -10.93990 | -37.11116 | 36997 ft | 456 kts | 31° |
| 2026-05-08 02:56 | -10.88822 | -37.07333 | 36997 ft | 456 kts | 31° |
| 2026-05-08 02:57 | -10.83673 | -37.03555 | 37000 ft | 457 kts | 31° |
| 2026-05-08 02:57 | -10.78506 | -36.99801 | 36996 ft | 456 kts | 31° |
| 2026-05-08 02:58 | -10.73360 | -36.96093 | 36984 ft | 455 kts | 31° |
| 2026-05-08 02:58 | -10.68189 | -36.92383 | 36979 ft | 455 kts | 31° |
| 2026-05-08 02:59 | -10.62968 | -36.88647 | 36979 ft | 455 kts | 31° |
| 2026-05-08 02:59 | -10.57817 | -36.84963 | 36979 ft | 453 kts | 30° |
| 2026-05-08 03:00 | -10.52633 | -36.81260 | 36983 ft | 454 kts | 30° |
| 2026-05-08 03:00 | -10.47489 | -36.77587 | 36984 ft | 453 kts | 31° |
| 2026-05-08 03:01 | -10.42312 | -36.73892 | 36982 ft | 453 kts | 30° |
| 2026-05-08 03:01 | -10.37127 | -36.70192 | 36983 ft | 454 kts | 30° |
| 2026-05-08 03:02 | -10.31979 | -36.66520 | 36981 ft | 453 kts | 30° |
| 2026-05-08 03:02 | -10.26816 | -36.62839 | 36986 ft | 452 kts | 30° |
| 2026-05-08 03:03 | -10.21675 | -36.59177 | 36997 ft | 453 kts | 30° |
| 2026-05-08 03:03 | -10.16514 | -36.55502 | 37006 ft | 454 kts | 30° |
| 2026-05-08 03:04 | -10.11313 | -36.51803 | 37008 ft | 453 kts | 30° |
| 2026-05-08 03:04 | -10.06172 | -36.48157 | 37010 ft | 452 kts | 30° |
| 2026-05-08 03:05 | -10.01014 | -36.44505 | 37013 ft | 453 kts | 30° |
| 2026-05-08 03:05 | -9.95819 | -36.40827 | 37012 ft | 452 kts | 30° |
| 2026-05-08 03:06 | -9.90676 | -36.37186 | 37012 ft | 451 kts | 30° |
| 2026-05-08 03:06 | -9.85535 | -36.33547 | 37014 ft | 450 kts | 30° |
| 2026-05-08 03:07 | -9.80399 | -36.29912 | 37013 ft | 448 kts | 30° |
| 2026-05-08 03:07 | -9.75286 | -36.26297 | 37011 ft | 448 kts | 30° |
| 2026-05-08 03:08 | -9.70177 | -36.22686 | 37013 ft | 448 kts | 30° |
| 2026-05-08 03:08 | -9.65076 | -36.19082 | 37010 ft | 447 kts | 30° |
| 2026-05-08 03:09 | -9.59939 | -36.15454 | 37005 ft | 447 kts | 30° |
| 2026-05-08 03:09 | -9.54856 | -36.11865 | 37001 ft | 448 kts | 30° |
| 2026-05-08 03:10 | -9.49753 | -36.08261 | 37000 ft | 444 kts | 30° |
| 2026-05-08 03:10 | -9.44681 | -36.04681 | 36985 ft | 443 kts | 30° |
| 2026-05-08 03:10 | -9.42163 | -36.02904 | 36633 ft | 441 kts | 29° |
| 2026-05-08 03:11 | -9.39636 | -36.01119 | 36141 ft | 436 kts | 30° |
| 2026-05-08 03:11 | -9.37167 | -35.99376 | 35562 ft | 434 kts | 29° |
| 2026-05-08 03:11 | -9.34669 | -35.97615 | 34897 ft | 435 kts | 30° |
| 2026-05-08 03:11 | -9.32208 | -35.95880 | 34212 ft | 436 kts | 30° |
| 2026-05-08 03:12 | -9.29713 | -35.94123 | 33735 ft | 437 kts | 30° |
| 2026-05-08 03:12 | -9.27184 | -35.92347 | 33214 ft | 446 kts | 29° |
| 2026-05-08 03:12 | -9.24642 | -35.90561 | 32671 ft | 445 kts | 30° |
| 2026-05-08 03:12 | -9.22101 | -35.88771 | 32161 ft | 442 kts | 30° |
| 2026-05-08 03:13 | -9.19574 | -35.86988 | 31622 ft | 439 kts | 30° |
| 2026-05-08 03:13 | -9.17097 | -35.85242 | 31077 ft | 437 kts | 30° |
| 2026-05-08 03:13 | -9.14589 | -35.83474 | 30527 ft | 435 kts | 30° |
| 2026-05-08 03:13 | -9.12129 | -35.81742 | 29984 ft | 432 kts | 30° |
| 2026-05-08 03:14 | -9.09661 | -35.80004 | 29436 ft | 430 kts | 30° |
| 2026-05-08 03:14 | -9.07216 | -35.78283 | 28887 ft | 428 kts | 31° |
| 2026-05-08 03:14 | -9.04779 | -35.76568 | 28353 ft | 426 kts | 31° |
| 2026-05-08 03:14 | -9.02364 | -35.74842 | 27825 ft | 426 kts | 32° |
| 2026-05-08 03:15 | -9.00047 | -35.72963 | 27291 ft | 426 kts | 37° |
| 2026-05-08 03:15 | -8.97835 | -35.70955 | 26726 ft | 424 kts | 39° |
| 2026-05-08 03:15 | -8.95721 | -35.68925 | 26202 ft | 418 kts | 40° |
| 2026-05-08 03:15 | -8.93662 | -35.66908 | 25672 ft | 412 kts | 40° |
| 2026-05-08 03:16 | -8.91625 | -35.64906 | 25148 ft | 405 kts | 40° |
| 2026-05-08 03:16 | -8.89605 | -35.62928 | 24624 ft | 399 kts | 40° |
| 2026-05-08 03:16 | -8.87615 | -35.60990 | 24109 ft | 393 kts | 39° |
| 2026-05-08 03:16 | -8.85665 | -35.59103 | 23604 ft | 387 kts | 39° |
| 2026-05-08 03:17 | -8.83743 | -35.57252 | 23115 ft | 381 kts | 39° |
| 2026-05-08 03:17 | -8.81823 | -35.55409 | 22619 ft | 375 kts | 39° |
| 2026-05-08 03:17 | -8.79965 | -35.53631 | 22133 ft | 369 kts | 39° |
| 2026-05-08 03:17 | -8.78095 | -35.51846 | 21648 ft | 364 kts | 39° |
| 2026-05-08 03:18 | -8.76279 | -35.50114 | 21177 ft | 358 kts | 40° |
| 2026-05-08 03:18 | -8.74479 | -35.48401 | 20712 ft | 353 kts | 40° |
| 2026-05-08 03:18 | -8.72672 | -35.46681 | 20251 ft | 357 kts | 40° |
| 2026-05-08 03:18 | -8.70870 | -35.44969 | 19781 ft | 361 kts | 40° |
| 2026-05-08 03:19 | -8.69040 | -35.43230 | 19301 ft | 356 kts | 41° |
| 2026-05-08 03:19 | -8.67257 | -35.41535 | 18838 ft | 351 kts | 41° |
| 2026-05-08 03:19 | -8.65499 | -35.39864 | 18389 ft | 346 kts | 41° |
| 2026-05-08 03:19 | -8.63727 | -35.38182 | 17928 ft | 353 kts | 41° |
| 2026-05-08 03:20 | -8.61926 | -35.36474 | 17445 ft | 354 kts | 42° |
| 2026-05-08 03:20 | -8.60137 | -35.34775 | 16992 ft | 348 kts | 42° |
| 2026-05-08 03:20 | -8.58390 | -35.33116 | 16545 ft | 342 kts | 42° |
| 2026-05-08 03:20 | -8.56665 | -35.31481 | 16103 ft | 336 kts | 43° |
| 2026-05-08 03:21 | -8.54961 | -35.29863 | 15669 ft | 338 kts | 43° |
| 2026-05-08 03:21 | -8.53234 | -35.28227 | 15220 ft | 337 kts | 44° |
| 2026-05-08 03:21 | -8.51544 | -35.26625 | 14779 ft | 331 kts | 44° |
| 2026-05-08 03:21 | -8.49865 | -35.25035 | 14343 ft | 325 kts | 44° |
| 2026-05-08 03:22 | -8.48236 | -35.23493 | 13917 ft | 319 kts | 44° |
| 2026-05-08 03:22 | -8.46636 | -35.21978 | 13498 ft | 315 kts | 45° |
| 2026-05-08 03:22 | -8.45019 | -35.20446 | 13074 ft | 319 kts | 45° |
| 2026-05-08 03:22 | -8.43389 | -35.18903 | 12630 ft | 316 kts | 45° |
| 2026-05-08 03:23 | -8.41812 | -35.17411 | 12212 ft | 313 kts | 45° |
| 2026-05-08 03:23 | -8.40216 | -35.15905 | 11781 ft | 309 kts | 45° |
| 2026-05-08 03:23 | -8.38654 | -35.14432 | 11348 ft | 306 kts | 45° |
| 2026-05-08 03:23 | -8.37108 | -35.12971 | 10930 ft | 303 kts | 46° |
| 2026-05-08 03:24 | -8.35574 | -35.11521 | 10511 ft | 300 kts | 46° |
| 2026-05-08 03:24 | -8.34061 | -35.10091 | 10207 ft | 293 kts | 46° |
| 2026-05-08 03:24 | -8.32615 | -35.08727 | 10075 ft | 280 kts | 46° |
| 2026-05-08 03:24 | -8.31194 | -35.07388 | 9793 ft | 274 kts | 46° |
| 2026-05-08 03:25 | -8.29807 | -35.06076 | 9417 ft | 272 kts | 46° |
| 2026-05-08 03:25 | -8.28404 | -35.04805 | 9065 ft | 270 kts | 41° |
| 2026-05-08 03:25 | -8.26790 | -35.03869 | 8737 ft | 272 kts | 22° |
| 2026-05-08 03:25 | -8.24953 | -35.03400 | 8420 ft | 270 kts | 15° |
| 2026-05-08 03:26 | -8.23102 | -35.03064 | 8064 ft | 266 kts | 14° |
| 2026-05-08 03:26 | -8.21309 | -35.02718 | 7735 ft | 261 kts | 16° |
| 2026-05-08 03:26 | -8.19537 | -35.02331 | 7414 ft | 256 kts | 17° |
| 2026-05-08 03:26 | -8.17808 | -35.01959 | 7085 ft | 253 kts | 12° |
| 2026-05-08 03:27 | -8.16061 | -35.01949 | 6827 ft | 253 kts | 353° |
| 2026-05-08 03:27 | -8.14367 | -35.02445 | 6480 ft | 254 kts | 344° |
| 2026-05-08 03:27 | -8.12713 | -35.03064 | 6167 ft | 251 kts | 344° |
| 2026-05-08 03:27 | -8.11075 | -35.03644 | 5864 ft | 247 kts | 346° |
| 2026-05-08 03:28 | -8.09449 | -35.04172 | 5562 ft | 244 kts | 347° |
| 2026-05-08 03:28 | -8.07812 | -35.04681 | 5266 ft | 241 kts | 347° |
| 2026-05-08 03:28 | -8.06227 | -35.05173 | 4972 ft | 239 kts | 347° |
| 2026-05-08 03:28 | -8.04634 | -35.05670 | 4744 ft | 232 kts | 347° |
| 2026-05-08 03:29 | -8.03134 | -35.06142 | 4647 ft | 219 kts | 346° |
| 2026-05-08 03:29 | -8.01714 | -35.06583 | 4582 ft | 205 kts | 350° |
| 2026-05-08 03:29 | -8.00352 | -35.06749 | 4523 ft | 194 kts | 13° |
| 2026-05-08 03:29 | -7.99096 | -35.06285 | 4441 ft | 188 kts | 39° |
| 2026-05-08 03:30 | -7.97465 | -35.04332 | 4001 ft | 179 kts | 72° |
| 2026-05-08 03:30 | -7.96753 | -35.01992 | 3733 ft | 170 kts | 74° |
| 2026-05-08 03:31 | -7.96058 | -34.99724 | 3476 ft | 167 kts | 83° |
| 2026-05-08 03:31 | -7.96970 | -34.97697 | 3019 ft | 171 kts | 143° |
| 2026-05-08 03:32 | -7.98013 | -34.97183 | 2751 ft | 163 kts | 154° |
| 2026-05-08 03:32 | -7.99053 | -34.96785 | 2532 ft | 159 kts | 156° |
| 2026-05-08 03:32 | -8.00112 | -34.96424 | 2323 ft | 161 kts | 158° |
| 2026-05-08 03:32 | -8.01173 | -34.96077 | 2132 ft | 155 kts | 156° |
| 2026-05-08 03:33 | -8.02184 | -34.95742 | 1870 ft | 149 kts | 156° |
| 2026-05-08 03:33 | -8.03172 | -34.95419 | 1706 ft | 150 kts | 157° |
| 2026-05-08 03:33 | -8.04158 | -34.95095 | 1514 ft | 145 kts | 158° |
| 2026-05-08 03:33 | -8.05121 | -34.94779 | 1315 ft | 144 kts | 159° |
| 2026-05-08 03:34 | -8.06084 | -34.94462 | 1120 ft | 145 kts | 159° |
| 2026-05-08 03:34 | -8.07051 | -34.94147 | 935 ft | 146 kts | 160° |
| 2026-05-08 03:34 | -8.08014 | -34.93832 | 720 ft | 145 kts | 160° |
| 2026-05-08 03:34 | -8.08972 | -34.93521 | 512 ft | 144 kts | 161° |
| 2026-05-08 03:35 | -8.09933 | -34.93210 | 337 ft | 144 kts | 161° |
| 2026-05-08 03:35 | -8.10895 | -34.92892 | 159 ft | 144 kts | 161° |
| 2026-05-08 03:35 | -8.11836 | -34.92577 | 49 ft | 140 kts | 162° |
| 2026-05-08 03:35 | -8.12696 | -34.92297 | 45 ft | 111 kts | 162° |
| 2026-05-08 03:36 | -8.13176 | -34.92141 | 48 ft | 30 kts | 160° |
| 2026-05-08 03:36 | -8.13264 | -34.92048 | 46 ft | 10 kts | 127° |
| 2026-05-08 03:36 | -8.13279 | -34.92030 | 46 ft | 0 kts | 131° |
| 2026-05-08 03:38 | -8.13279 | -34.92029 | 46 ft | 0 kts | 131° |
| 2026-05-08 03:38 | -8.13291 | -34.92005 | 45 ft | 5 kts | 104° |
| 2026-05-08 03:38 | -8.13300 | -34.91965 | 45 ft | 6 kts | 96° |
| 2026-05-08 03:38 | -8.13292 | -34.91921 | 45 ft | 6 kts | 72° |
| 2026-05-08 03:39 | -8.13280 | -34.91884 | 45 ft | 2 kts | 71° |
| 2026-05-08 03:39 | -8.13278 | -34.91877 | 45 ft | 0 kts | 71° |